sensor_id;sensor_type;location;lat;lon;timestamp;P1;durP1;ratioP1;P2;durP2;ratioP2
82005;SDS011;71529;47.484;19.064;2023-12-04T00:02:03;8.63;;;6.23;;
82005;SDS011;71529;47.484;19.064;2023-12-04T00:04:31;12.10;;;6.90;;
82005;SDS011;71529;47.484;19.064;2023-12-04T00:06:59;11.00;;;7.10;;
82005;SDS011;71529;47.484;19.064;2023-12-04T00:09:28;10.18;;;7.75;;
82005;SDS011;71529;47.484;19.064;2023-12-04T00:11:58;10.63;;;7.33;;
82005;SDS011;71529;47.484;19.064;2023-12-04T00:14:26;9.33;;;6.73;;
82005;SDS011;71529;47.484;19.064;2023-12-04T00:16:54;11.43;;;7.38;;
82005;SDS011;71529;47.484;19.064;2023-12-04T00:19:22;10.00;;;6.88;;
82005;SDS011;71529;47.484;19.064;2023-12-04T00:21:51;10.85;;;6.97;;
82005;SDS011;71529;47.484;19.064;2023-12-04T00:24:19;9.48;;;6.88;;
82005;SDS011;71529;47.484;19.064;2023-12-04T00:26:47;8.77;;;6.93;;
82005;SDS011;71529;47.484;19.064;2023-12-04T00:29:16;11.45;;;7.63;;
82005;SDS011;71529;47.484;19.064;2023-12-04T00:31:45;11.77;;;7.65;;
82005;SDS011;71529;47.484;19.064;2023-12-04T00:34:13;9.93;;;7.20;;
82005;SDS011;71529;47.484;19.064;2023-12-04T00:36:41;9.70;;;7.13;;
82005;SDS011;71529;47.484;19.064;2023-12-04T00:39:09;12.68;;;8.50;;
82005;SDS011;71529;47.484;19.064;2023-12-04T00:41:37;9.27;;;7.13;;
82005;SDS011;71529;47.484;19.064;2023-12-04T00:44:06;10.43;;;7.60;;
82005;SDS011;71529;47.484;19.064;2023-12-04T00:46:35;9.57;;;6.73;;
82005;SDS011;71529;47.484;19.064;2023-12-04T00:49:03;10.30;;;6.67;;
82005;SDS011;71529;47.484;19.064;2023-12-04T00:51:36;9.70;;;7.07;;
82005;SDS011;71529;47.484;19.064;2023-12-04T00:54:05;11.70;;;7.43;;
82005;SDS011;71529;47.484;19.064;2023-12-04T00:56:33;9.10;;;6.57;;
82005;SDS011;71529;47.484;19.064;2023-12-04T00:59:01;9.35;;;6.88;;
82005;SDS011;71529;47.484;19.064;2023-12-04T01:01:30;11.67;;;6.90;;
82005;SDS011;71529;47.484;19.064;2023-12-04T01:04:00;8.13;;;6.13;;
82005;SDS011;71529;47.484;19.064;2023-12-04T01:06:28;10.63;;;7.13;;
82005;SDS011;71529;47.484;19.064;2023-12-04T01:08:57;8.93;;;7.20;;
82005;SDS011;71529;47.484;19.064;2023-12-04T01:11:25;9.73;;;7.67;;
82005;SDS011;71529;47.484;19.064;2023-12-04T01:13:53;12.90;;;7.63;;
82005;SDS011;71529;47.484;19.064;2023-12-04T01:16:21;13.07;;;8.13;;
82005;SDS011;71529;47.484;19.064;2023-12-04T01:18:49;10.87;;;8.00;;
82005;SDS011;71529;47.484;19.064;2023-12-04T01:21:19;11.63;;;8.17;;
82005;SDS011;71529;47.484;19.064;2023-12-04T01:23:47;12.27;;;8.43;;
82005;SDS011;71529;47.484;19.064;2023-12-04T01:26:15;11.80;;;8.23;;
82005;SDS011;71529;47.484;19.064;2023-12-04T01:28:43;11.20;;;8.33;;
82005;SDS011;71529;47.484;19.064;2023-12-04T01:31:11;12.17;;;8.40;;
82005;SDS011;71529;47.484;19.064;2023-12-04T01:33:39;12.40;;;8.40;;
82005;SDS011;71529;47.484;19.064;2023-12-04T01:36:08;9.97;;;7.17;;
82005;SDS011;71529;47.484;19.064;2023-12-04T01:38:38;11.60;;;7.57;;
82005;SDS011;71529;47.484;19.064;2023-12-04T01:41:06;12.67;;;8.53;;
82005;SDS011;71529;47.484;19.064;2023-12-04T01:43:35;10.70;;;7.13;;
82005;SDS011;71529;47.484;19.064;2023-12-04T01:46:03;10.50;;;7.77;;
82005;SDS011;71529;47.484;19.064;2023-12-04T01:48:32;13.00;;;8.60;;
82005;SDS011;71529;47.484;19.064;2023-12-04T01:51:02;11.17;;;7.73;;
82005;SDS011;71529;47.484;19.064;2023-12-04T01:53:33;16.33;;;8.40;;
82005;SDS011;71529;47.484;19.064;2023-12-04T01:56:05;11.40;;;7.73;;
82005;SDS011;71529;47.484;19.064;2023-12-04T01:58:34;11.87;;;8.43;;
82005;SDS011;71529;47.484;19.064;2023-12-04T02:01:03;11.00;;;8.47;;
82005;SDS011;71529;47.484;19.064;2023-12-04T02:03:32;10.90;;;7.73;;
82005;SDS011;71529;47.484;19.064;2023-12-04T02:06:01;9.30;;;7.00;;
82005;SDS011;71529;47.484;19.064;2023-12-04T02:08:30;11.87;;;7.43;;
82005;SDS011;71529;47.484;19.064;2023-12-04T02:10:59;11.37;;;8.10;;
82005;SDS011;71529;47.484;19.064;2023-12-04T02:13:29;9.07;;;7.27;;
82005;SDS011;71529;47.484;19.064;2023-12-04T02:15:57;11.07;;;7.90;;
82005;SDS011;71529;47.484;19.064;2023-12-04T02:18:29;12.90;;;8.03;;
82005;SDS011;71529;47.484;19.064;2023-12-04T02:20:58;10.10;;;7.47;;
82005;SDS011;71529;47.484;19.064;2023-12-04T02:23:28;12.43;;;7.53;;
82005;SDS011;71529;47.484;19.064;2023-12-04T02:25:58;12.03;;;7.87;;
82005;SDS011;71529;47.484;19.064;2023-12-04T02:28:30;12.43;;;7.87;;
82005;SDS011;71529;47.484;19.064;2023-12-04T02:31:01;11.93;;;7.93;;
82005;SDS011;71529;47.484;19.064;2023-12-04T02:33:33;14.27;;;8.43;;
82005;SDS011;71529;47.484;19.064;2023-12-04T02:36:04;12.33;;;8.33;;
82005;SDS011;71529;47.484;19.064;2023-12-04T02:38:34;11.50;;;7.33;;
82005;SDS011;71529;47.484;19.064;2023-12-04T02:41:04;12.47;;;8.30;;
82005;SDS011;71529;47.484;19.064;2023-12-04T02:43:32;12.23;;;8.00;;
82005;SDS011;71529;47.484;19.064;2023-12-04T02:46:01;14.33;;;8.70;;
82005;SDS011;71529;47.484;19.064;2023-12-04T02:48:30;14.03;;;9.30;;
82005;SDS011;71529;47.484;19.064;2023-12-04T02:50:58;13.30;;;9.00;;
82005;SDS011;71529;47.484;19.064;2023-12-04T02:53:26;14.20;;;9.27;;
82005;SDS011;71529;47.484;19.064;2023-12-04T02:55:54;15.13;;;9.37;;
82005;SDS011;71529;47.484;19.064;2023-12-04T02:58:24;18.07;;;8.93;;
82005;SDS011;71529;47.484;19.064;2023-12-04T03:00:52;13.50;;;9.13;;
82005;SDS011;71529;47.484;19.064;2023-12-04T03:03:20;13.90;;;8.67;;
82005;SDS011;71529;47.484;19.064;2023-12-04T03:05:49;12.20;;;8.10;;
82005;SDS011;71529;47.484;19.064;2023-12-04T03:08:17;11.63;;;8.57;;
82005;SDS011;71529;47.484;19.064;2023-12-04T03:10:45;12.83;;;8.57;;
82005;SDS011;71529;47.484;19.064;2023-12-04T03:13:13;11.83;;;8.20;;
82005;SDS011;71529;47.484;19.064;2023-12-04T03:15:43;10.93;;;8.20;;
82005;SDS011;71529;47.484;19.064;2023-12-04T03:18:11;9.47;;;7.43;;
82005;SDS011;71529;47.484;19.064;2023-12-04T03:20:40;14.57;;;9.40;;
82005;SDS011;71529;47.484;19.064;2023-12-04T03:23:08;13.43;;;9.00;;
82005;SDS011;71529;47.484;19.064;2023-12-04T03:25:36;10.40;;;7.87;;
82005;SDS011;71529;47.484;19.064;2023-12-04T03:28:04;14.40;;;8.63;;
82005;SDS011;71529;47.484;19.064;2023-12-04T03:30:32;13.30;;;9.00;;
82005;SDS011;71529;47.484;19.064;2023-12-04T03:35:58;12.43;;;7.73;;
82005;SDS011;71529;47.484;19.064;2023-12-04T03:38:26;10.77;;;7.90;;
82005;SDS011;71529;47.484;19.064;2023-12-04T03:40:54;9.50;;;7.20;;
82005;SDS011;71529;47.484;19.064;2023-12-04T03:43:23;11.87;;;8.27;;
82005;SDS011;71529;47.484;19.064;2023-12-04T03:45:51;11.87;;;8.27;;
82005;SDS011;71529;47.484;19.064;2023-12-04T03:48:19;11.70;;;8.13;;
82005;SDS011;71529;47.484;19.064;2023-12-04T03:50:48;13.60;;;8.30;;
82005;SDS011;71529;47.484;19.064;2023-12-04T03:53:17;11.23;;;7.93;;
82005;SDS011;71529;47.484;19.064;2023-12-04T03:55:45;12.30;;;8.63;;
82005;SDS011;71529;47.484;19.064;2023-12-04T03:58:13;13.60;;;8.33;;
82005;SDS011;71529;47.484;19.064;2023-12-04T04:00:42;12.33;;;8.57;;
82005;SDS011;71529;47.484;19.064;2023-12-04T04:03:10;14.93;;;9.73;;
82005;SDS011;71529;47.484;19.064;2023-12-04T04:05:38;12.43;;;8.47;;
82005;SDS011;71529;47.484;19.064;2023-12-04T04:08:06;13.03;;;8.53;;
82005;SDS011;71529;47.484;19.064;2023-12-04T04:10:36;11.43;;;8.17;;
82005;SDS011;71529;47.484;19.064;2023-12-04T04:13:04;11.63;;;8.00;;
82005;SDS011;71529;47.484;19.064;2023-12-04T04:15:33;12.47;;;8.53;;
82005;SDS011;71529;47.484;19.064;2023-12-04T04:18:01;11.20;;;7.87;;
82005;SDS011;71529;47.484;19.064;2023-12-04T04:20:30;12.00;;;8.00;;
82005;SDS011;71529;47.484;19.064;2023-12-04T04:22:58;12.17;;;9.03;;
82005;SDS011;71529;47.484;19.064;2023-12-04T04:25:26;12.07;;;7.60;;
82005;SDS011;71529;47.484;19.064;2023-12-04T04:27:55;11.13;;;7.60;;
82005;SDS011;71529;47.484;19.064;2023-12-04T04:30:23;12.10;;;8.83;;
82005;SDS011;71529;47.484;19.064;2023-12-04T04:32:51;12.13;;;8.10;;
82005;SDS011;71529;47.484;19.064;2023-12-04T04:35:20;11.10;;;8.10;;
82005;SDS011;71529;47.484;19.064;2023-12-04T04:37:48;12.47;;;8.63;;
82005;SDS011;71529;47.484;19.064;2023-12-04T04:40:17;15.40;;;8.00;;
82005;SDS011;71529;47.484;19.064;2023-12-04T04:42:45;10.57;;;7.67;;
82005;SDS011;71529;47.484;19.064;2023-12-04T04:45:16;8.90;;;6.83;;
82005;SDS011;71529;47.484;19.064;2023-12-04T04:47:44;10.03;;;6.83;;
82005;SDS011;71529;47.484;19.064;2023-12-04T04:50:13;11.30;;;7.83;;
82005;SDS011;71529;47.484;19.064;2023-12-04T04:52:41;10.07;;;7.70;;
82005;SDS011;71529;47.484;19.064;2023-12-04T04:55:09;13.83;;;9.07;;
82005;SDS011;71529;47.484;19.064;2023-12-04T04:57:57;14.00;;;8.07;;
82005;SDS011;71529;47.484;19.064;2023-12-04T05:00:28;13.00;;;8.03;;
82005;SDS011;71529;47.484;19.064;2023-12-04T05:02:56;13.07;;;7.70;;
82005;SDS011;71529;47.484;19.064;2023-12-04T05:05:24;11.97;;;7.90;;
82005;SDS011;71529;47.484;19.064;2023-12-04T05:07:53;12.07;;;8.10;;
82005;SDS011;71529;47.484;19.064;2023-12-04T05:10:21;11.67;;;8.23;;
82005;SDS011;71529;47.484;19.064;2023-12-04T05:12:49;11.00;;;8.23;;
82005;SDS011;71529;47.484;19.064;2023-12-04T05:15:17;12.13;;;8.77;;
82005;SDS011;71529;47.484;19.064;2023-12-04T05:17:47;12.20;;;8.23;;
82005;SDS011;71529;47.484;19.064;2023-12-04T05:20:15;12.43;;;7.93;;
82005;SDS011;71529;47.484;19.064;2023-12-04T05:22:43;13.20;;;8.10;;
82005;SDS011;71529;47.484;19.064;2023-12-04T05:25:11;11.80;;;7.90;;
82005;SDS011;71529;47.484;19.064;2023-12-04T05:27:40;11.30;;;8.13;;
82005;SDS011;71529;47.484;19.064;2023-12-04T05:30:08;11.50;;;7.80;;
82005;SDS011;71529;47.484;19.064;2023-12-04T05:32:37;10.87;;;7.37;;
82005;SDS011;71529;47.484;19.064;2023-12-04T05:35:07;14.37;;;8.87;;
82005;SDS011;71529;47.484;19.064;2023-12-04T05:37:35;14.97;;;7.90;;
82005;SDS011;71529;47.484;19.064;2023-12-04T05:40:04;11.60;;;8.93;;
82005;SDS011;71529;47.484;19.064;2023-12-04T05:42:34;18.73;;;9.30;;
82005;SDS011;71529;47.484;19.064;2023-12-04T05:45:03;12.37;;;8.60;;
82005;SDS011;71529;47.484;19.064;2023-12-04T05:47:33;12.30;;;8.33;;
82005;SDS011;71529;47.484;19.064;2023-12-04T05:50:02;12.03;;;8.90;;
82005;SDS011;71529;47.484;19.064;2023-12-04T05:52:32;16.00;;;9.97;;
82005;SDS011;71529;47.484;19.064;2023-12-04T05:55:01;16.27;;;9.07;;
82005;SDS011;71529;47.484;19.064;2023-12-04T05:57:30;15.27;;;9.87;;
82005;SDS011;71529;47.484;19.064;2023-12-04T05:59:58;15.50;;;10.80;;
82005;SDS011;71529;47.484;19.064;2023-12-04T06:02:27;12.57;;;9.20;;
82005;SDS011;71529;47.484;19.064;2023-12-04T06:04:57;17.73;;;10.50;;
82005;SDS011;71529;47.484;19.064;2023-12-04T06:07:25;16.63;;;10.50;;
82005;SDS011;71529;47.484;19.064;2023-12-04T06:09:54;19.53;;;11.40;;
82005;SDS011;71529;47.484;19.064;2023-12-04T06:12:23;18.93;;;10.30;;
82005;SDS011;71529;47.484;19.064;2023-12-04T06:14:51;14.50;;;9.73;;
82005;SDS011;71529;47.484;19.064;2023-12-04T06:17:19;18.23;;;10.53;;
82005;SDS011;71529;47.484;19.064;2023-12-04T06:19:47;15.80;;;9.80;;
82005;SDS011;71529;47.484;19.064;2023-12-04T06:22:16;15.87;;;10.07;;
82005;SDS011;71529;47.484;19.064;2023-12-04T06:24:47;22.30;;;10.27;;
82005;SDS011;71529;47.484;19.064;2023-12-04T06:27:17;15.63;;;9.73;;
82005;SDS011;71529;47.484;19.064;2023-12-04T06:29:47;15.80;;;10.03;;
82005;SDS011;71529;47.484;19.064;2023-12-04T06:32:19;14.20;;;9.47;;
82005;SDS011;71529;47.484;19.064;2023-12-04T06:34:47;14.87;;;10.20;;
82005;SDS011;71529;47.484;19.064;2023-12-04T06:37:16;16.43;;;10.30;;
82005;SDS011;71529;47.484;19.064;2023-12-04T06:39:45;12.67;;;9.47;;
82005;SDS011;71529;47.484;19.064;2023-12-04T06:42:19;18.30;;;10.40;;
82005;SDS011;71529;47.484;19.064;2023-12-04T06:44:48;15.23;;;9.53;;
82005;SDS011;71529;47.484;19.064;2023-12-04T06:47:16;15.03;;;9.97;;
82005;SDS011;71529;47.484;19.064;2023-12-04T06:49:46;14.53;;;10.10;;
82005;SDS011;71529;47.484;19.064;2023-12-04T06:52:14;13.90;;;10.13;;
82005;SDS011;71529;47.484;19.064;2023-12-04T06:54:42;18.53;;;12.13;;
82005;SDS011;71529;47.484;19.064;2023-12-04T06:57:10;16.90;;;11.07;;
82005;SDS011;71529;47.484;19.064;2023-12-04T06:59:42;19.10;;;11.30;;
82005;SDS011;71529;47.484;19.064;2023-12-04T07:02:10;16.60;;;9.93;;
82005;SDS011;71529;47.484;19.064;2023-12-04T07:04:39;15.87;;;10.80;;
82005;SDS011;71529;47.484;19.064;2023-12-04T07:07:07;18.00;;;11.20;;
82005;SDS011;71529;47.484;19.064;2023-12-04T07:09:36;17.90;;;11.53;;
82005;SDS011;71529;47.484;19.064;2023-12-04T07:12:04;22.03;;;11.10;;
82005;SDS011;71529;47.484;19.064;2023-12-04T07:14:33;21.40;;;12.90;;
82005;SDS011;71529;47.484;19.064;2023-12-04T07:17:02;18.13;;;12.43;;
82005;SDS011;71529;47.484;19.064;2023-12-04T07:19:31;20.47;;;11.60;;
82005;SDS011;71529;47.484;19.064;2023-12-04T07:21:59;16.77;;;11.53;;
82005;SDS011;71529;47.484;19.064;2023-12-04T07:24:27;19.93;;;11.77;;
82005;SDS011;71529;47.484;19.064;2023-12-04T07:26:55;19.00;;;10.53;;
82005;SDS011;71529;47.484;19.064;2023-12-04T07:29:24;23.43;;;12.83;;
82005;SDS011;71529;47.484;19.064;2023-12-04T07:31:52;21.07;;;11.87;;
82005;SDS011;71529;47.484;19.064;2023-12-04T07:34:21;18.73;;;11.03;;
82005;SDS011;71529;47.484;19.064;2023-12-04T07:36:51;21.70;;;12.63;;
82005;SDS011;71529;47.484;19.064;2023-12-04T07:39:19;17.93;;;11.73;;
82005;SDS011;71529;47.484;19.064;2023-12-04T07:41:48;20.67;;;13.27;;
82005;SDS011;71529;47.484;19.064;2023-12-04T07:44:16;25.07;;;13.47;;
82005;SDS011;71529;47.484;19.064;2023-12-04T07:46:44;22.43;;;13.27;;
82005;SDS011;71529;47.484;19.064;2023-12-04T07:49:13;22.83;;;12.83;;
82005;SDS011;71529;47.484;19.064;2023-12-04T07:51:42;21.20;;;13.90;;
82005;SDS011;71529;47.484;19.064;2023-12-04T07:54:11;21.23;;;13.13;;
82005;SDS011;71529;47.484;19.064;2023-12-04T07:56:39;20.03;;;13.23;;
82005;SDS011;71529;47.484;19.064;2023-12-04T07:59:07;20.70;;;13.17;;
82005;SDS011;71529;47.484;19.064;2023-12-04T08:01:36;20.90;;;14.03;;
82005;SDS011;71529;47.484;19.064;2023-12-04T08:04:04;23.53;;;13.67;;
82005;SDS011;71529;47.484;19.064;2023-12-04T08:06:32;24.97;;;15.33;;
82005;SDS011;71529;47.484;19.064;2023-12-04T08:09:02;29.20;;;15.47;;
82005;SDS011;71529;47.484;19.064;2023-12-04T08:11:32;28.63;;;15.77;;
82005;SDS011;71529;47.484;19.064;2023-12-04T08:14:01;25.20;;;15.57;;
82005;SDS011;71529;47.484;19.064;2023-12-04T08:16:29;23.17;;;14.47;;
82005;SDS011;71529;47.484;19.064;2023-12-04T08:18:58;24.60;;;16.47;;
82005;SDS011;71529;47.484;19.064;2023-12-04T08:21:26;26.97;;;16.33;;
82005;SDS011;71529;47.484;19.064;2023-12-04T08:23:54;31.67;;;15.70;;
82005;SDS011;71529;47.484;19.064;2023-12-04T08:26:24;23.70;;;15.17;;
82005;SDS011;71529;47.484;19.064;2023-12-04T08:28:53;21.87;;;13.57;;
82005;SDS011;71529;47.484;19.064;2023-12-04T08:31:23;24.47;;;15.80;;
82005;SDS011;71529;47.484;19.064;2023-12-04T08:33:51;20.27;;;13.57;;
82005;SDS011;71529;47.484;19.064;2023-12-04T08:36:19;28.73;;;13.70;;
82005;SDS011;71529;47.484;19.064;2023-12-04T08:38:47;21.23;;;13.73;;
82005;SDS011;71529;47.484;19.064;2023-12-04T08:41:16;21.47;;;13.97;;
82005;SDS011;71529;47.484;19.064;2023-12-04T08:43:45;30.90;;;15.93;;
82005;SDS011;71529;47.484;19.064;2023-12-04T08:46:13;36.50;;;17.23;;
82005;SDS011;71529;47.484;19.064;2023-12-04T08:48:42;29.90;;;18.47;;
82005;SDS011;71529;47.484;19.064;2023-12-04T08:51:15;28.73;;;18.90;;
82005;SDS011;71529;47.484;19.064;2023-12-04T08:53:43;32.87;;;18.60;;
82005;SDS011;71529;47.484;19.064;2023-12-04T08:56:11;30.97;;;18.90;;
82005;SDS011;71529;47.484;19.064;2023-12-04T08:58:48;39.63;;;19.07;;
82005;SDS011;71529;47.484;19.064;2023-12-04T09:01:17;27.97;;;18.30;;
82005;SDS011;71529;47.484;19.064;2023-12-04T09:03:46;27.97;;;18.07;;
82005;SDS011;71529;47.484;19.064;2023-12-04T09:06:14;29.10;;;17.93;;
82005;SDS011;71529;47.484;19.064;2023-12-04T09:08:42;31.98;;;17.98;;
82005;SDS011;71529;47.484;19.064;2023-12-04T09:11:26;30.27;;;18.43;;
82005;SDS011;71529;47.484;19.064;2023-12-04T09:13:56;32.55;;;18.33;;
82005;SDS011;71529;47.484;19.064;2023-12-04T09:16:24;34.50;;;16.40;;
82005;SDS011;71529;47.484;19.064;2023-12-04T09:18:52;30.67;;;17.50;;
82005;SDS011;71529;47.484;19.064;2023-12-04T09:21:21;30.33;;;15.88;;
82005;SDS011;71529;47.484;19.064;2023-12-04T09:23:49;28.70;;;15.75;;
82005;SDS011;71529;47.484;19.064;2023-12-04T09:26:18;27.67;;;15.65;;
82005;SDS011;71529;47.484;19.064;2023-12-04T09:28:46;33.47;;;15.85;;
82005;SDS011;71529;47.484;19.064;2023-12-04T09:31:17;23.23;;;14.98;;
82005;SDS011;71529;47.484;19.064;2023-12-04T09:33:46;28.25;;;15.20;;
82005;SDS011;71529;47.484;19.064;2023-12-04T09:36:14;21.67;;;13.52;;
82005;SDS011;71529;47.484;19.064;2023-12-04T09:38:43;21.30;;;13.75;;
82005;SDS011;71529;47.484;19.064;2023-12-04T09:41:12;19.57;;;13.07;;
82005;SDS011;71529;47.484;19.064;2023-12-04T09:43:40;26.40;;;13.73;;
82005;SDS011;71529;47.484;19.064;2023-12-04T09:46:09;23.23;;;12.77;;
82005;SDS011;71529;47.484;19.064;2023-12-04T09:48:40;21.80;;;13.33;;
82005;SDS011;71529;47.484;19.064;2023-12-04T09:51:10;19.98;;;12.82;;
82005;SDS011;71529;47.484;19.064;2023-12-04T09:53:38;26.77;;;13.30;;
82005;SDS011;71529;47.484;19.064;2023-12-04T09:56:08;23.20;;;12.30;;
82005;SDS011;71529;47.484;19.064;2023-12-04T09:58:39;15.60;;;11.03;;
82005;SDS011;71529;47.484;19.064;2023-12-04T10:01:08;16.23;;;11.20;;
82005;SDS011;71529;47.484;19.064;2023-12-04T10:03:37;17.85;;;11.45;;
82005;SDS011;71529;47.484;19.064;2023-12-04T10:06:08;19.25;;;11.35;;
82005;SDS011;71529;47.484;19.064;2023-12-04T10:08:37;15.32;;;11.15;;
82005;SDS011;71529;47.484;19.064;2023-12-04T10:11:05;26.85;;;13.50;;
82005;SDS011;71529;47.484;19.064;2023-12-04T10:13:33;18.60;;;11.52;;
82005;SDS011;71529;47.484;19.064;2023-12-04T10:16:31;19.45;;;12.20;;
82005;SDS011;71529;47.484;19.064;2023-12-04T10:19:21;22.95;;;13.23;;
82005;SDS011;71529;47.484;19.064;2023-12-04T10:21:54;19.75;;;13.10;;
82005;SDS011;71529;47.484;19.064;2023-12-04T10:24:27;21.70;;;13.07;;
82005;SDS011;71529;47.484;19.064;2023-12-04T10:27:00;20.05;;;12.65;;
82005;SDS011;71529;47.484;19.064;2023-12-04T10:29:29;27.65;;;14.48;;
82005;SDS011;71529;47.484;19.064;2023-12-04T10:32:08;20.40;;;13.07;;
82005;SDS011;71529;47.484;19.064;2023-12-04T10:34:38;23.80;;;14.52;;
82005;SDS011;71529;47.484;19.064;2023-12-04T10:37:06;22.10;;;14.13;;
82005;SDS011;71529;47.484;19.064;2023-12-04T10:39:44;18.70;;;12.13;;
82005;SDS011;71529;47.484;19.064;2023-12-04T10:42:25;18.20;;;11.98;;
82005;SDS011;71529;47.484;19.064;2023-12-04T10:44:54;19.65;;;11.32;;
82005;SDS011;71529;47.484;19.064;2023-12-04T10:47:24;40.95;;;12.27;;
82005;SDS011;71529;47.484;19.064;2023-12-04T10:49:54;16.05;;;10.98;;
82005;SDS011;71529;47.484;19.064;2023-12-04T10:52:23;22.48;;;10.82;;
82005;SDS011;71529;47.484;19.064;2023-12-04T10:54:52;23.27;;;12.63;;
82005;SDS011;71529;47.484;19.064;2023-12-04T10:57:21;16.88;;;10.05;;
82005;SDS011;71529;47.484;19.064;2023-12-04T10:59:53;13.95;;;8.43;;
82005;SDS011;71529;47.484;19.064;2023-12-04T11:02:25;15.90;;;9.73;;
82005;SDS011;71529;47.484;19.064;2023-12-04T11:04:58;17.48;;;8.95;;
82005;SDS011;71529;47.484;19.064;2023-12-04T11:07:40;12.77;;;8.55;;
82005;SDS011;71529;47.484;19.064;2023-12-04T11:10:29;11.43;;;7.32;;
82005;SDS011;71529;47.484;19.064;2023-12-04T11:13:00;10.13;;;7.45;;
82005;SDS011;71529;47.484;19.064;2023-12-04T11:15:35;10.88;;;7.72;;
82005;SDS011;71529;47.484;19.064;2023-12-04T11:18:09;11.18;;;7.88;;
82005;SDS011;71529;47.484;19.064;2023-12-04T11:20:44;13.23;;;7.78;;
82005;SDS011;71529;47.484;19.064;2023-12-04T11:23:18;9.60;;;7.13;;
82005;SDS011;71529;47.484;19.064;2023-12-04T11:25:47;13.02;;;8.80;;
82005;SDS011;71529;47.484;19.064;2023-12-04T11:28:16;12.57;;;8.75;;
82005;SDS011;71529;47.484;19.064;2023-12-04T11:30:44;12.18;;;7.45;;
82005;SDS011;71529;47.484;19.064;2023-12-04T11:33:13;13.38;;;7.93;;
82005;SDS011;71529;47.484;19.064;2023-12-04T11:35:43;10.55;;;7.80;;
82005;SDS011;71529;47.484;19.064;2023-12-04T11:38:13;11.15;;;7.63;;
82005;SDS011;71529;47.484;19.064;2023-12-04T11:40:43;14.48;;;7.80;;
82005;SDS011;71529;47.484;19.064;2023-12-04T11:46:07;12.23;;;8.00;;
82005;SDS011;71529;47.484;19.064;2023-12-04T11:48:36;18.77;;;8.25;;
82005;SDS011;71529;47.484;19.064;2023-12-04T11:51:06;13.90;;;8.90;;
82005;SDS011;71529;47.484;19.064;2023-12-04T11:53:38;11.98;;;8.02;;
82005;SDS011;71529;47.484;19.064;2023-12-04T11:56:10;18.70;;;9.00;;
82005;SDS011;71529;47.484;19.064;2023-12-04T11:58:41;19.08;;;11.38;;
82005;SDS011;71529;47.484;19.064;2023-12-04T12:01:10;15.15;;;9.48;;
82005;SDS011;71529;47.484;19.064;2023-12-04T12:03:38;14.45;;;8.90;;
82005;SDS011;71529;47.484;19.064;2023-12-04T12:06:08;12.38;;;7.80;;
82005;SDS011;71529;47.484;19.064;2023-12-04T12:08:37;11.00;;;7.35;;
82005;SDS011;71529;47.484;19.064;2023-12-04T12:11:06;17.05;;;8.75;;
82005;SDS011;71529;47.484;19.064;2023-12-04T12:13:34;11.05;;;7.65;;
82005;SDS011;71529;47.484;19.064;2023-12-04T12:16:03;10.82;;;7.78;;
82005;SDS011;71529;47.484;19.064;2023-12-04T12:18:34;14.90;;;8.20;;
82005;SDS011;71529;47.484;19.064;2023-12-04T12:21:03;12.15;;;7.65;;
82005;SDS011;71529;47.484;19.064;2023-12-04T12:23:33;9.77;;;7.25;;
82005;SDS011;71529;47.484;19.064;2023-12-04T12:26:02;16.45;;;7.43;;
82005;SDS011;71529;47.484;19.064;2023-12-04T12:28:31;9.45;;;7.03;;
82005;SDS011;71529;47.484;19.064;2023-12-04T12:31:01;11.60;;;7.05;;
82005;SDS011;71529;47.484;19.064;2023-12-04T12:36:06;9.98;;;7.10;;
82005;SDS011;71529;47.484;19.064;2023-12-04T12:38:37;11.85;;;7.65;;
82005;SDS011;71529;47.484;19.064;2023-12-04T12:41:06;15.27;;;8.30;;
82005;SDS011;71529;47.484;19.064;2023-12-04T12:43:37;15.13;;;9.05;;
82005;SDS011;71529;47.484;19.064;2023-12-04T12:46:05;12.50;;;8.30;;
82005;SDS011;71529;47.484;19.064;2023-12-04T12:48:33;11.13;;;7.32;;
82005;SDS011;71529;47.484;19.064;2023-12-04T12:51:03;12.35;;;7.47;;
82005;SDS011;71529;47.484;19.064;2023-12-04T12:53:32;14.15;;;8.27;;
82005;SDS011;71529;47.484;19.064;2023-12-04T12:56:01;13.73;;;7.80;;
82005;SDS011;71529;47.484;19.064;2023-12-04T12:58:31;18.75;;;8.38;;
82005;SDS011;71529;47.484;19.064;2023-12-04T13:00:59;15.10;;;7.50;;
82005;SDS011;71529;47.484;19.064;2023-12-04T13:03:30;10.55;;;7.10;;
82005;SDS011;71529;47.484;19.064;2023-12-04T13:05:58;14.70;;;7.82;;
82005;SDS011;71529;47.484;19.064;2023-12-04T13:08:27;13.75;;;7.43;;
82005;SDS011;71529;47.484;19.064;2023-12-04T13:10:55;15.20;;;8.40;;
82005;SDS011;71529;47.484;19.064;2023-12-04T13:13:25;12.02;;;7.35;;
82005;SDS011;71529;47.484;19.064;2023-12-04T13:15:55;12.98;;;8.05;;
82005;SDS011;71529;47.484;19.064;2023-12-04T13:18:23;15.82;;;8.02;;
82005;SDS011;71529;47.484;19.064;2023-12-04T13:20:51;11.75;;;8.02;;
82005;SDS011;71529;47.484;19.064;2023-12-04T13:23:19;11.65;;;8.00;;
82005;SDS011;71529;47.484;19.064;2023-12-04T13:25:51;11.60;;;7.68;;
82005;SDS011;71529;47.484;19.064;2023-12-04T13:28:22;15.20;;;7.72;;
82005;SDS011;71529;47.484;19.064;2023-12-04T13:31:03;11.88;;;7.38;;
82005;SDS011;71529;47.484;19.064;2023-12-04T13:33:31;16.83;;;7.80;;
82005;SDS011;71529;47.484;19.064;2023-12-04T13:36:00;15.73;;;8.05;;
82005;SDS011;71529;47.484;19.064;2023-12-04T13:38:28;12.40;;;7.47;;
82005;SDS011;71529;47.484;19.064;2023-12-04T13:41:03;10.75;;;6.90;;
82005;SDS011;71529;47.484;19.064;2023-12-04T13:43:56;14.95;;;7.63;;
82005;SDS011;71529;47.484;19.064;2023-12-04T13:46:27;11.13;;;7.65;;
82005;SDS011;71529;47.484;19.064;2023-12-04T13:48:57;8.93;;;6.65;;
82005;SDS011;71529;47.484;19.064;2023-12-04T13:51:25;21.05;;;8.20;;
82005;SDS011;71529;47.484;19.064;2023-12-04T13:53:54;13.15;;;8.85;;
82005;SDS011;71529;47.484;19.064;2023-12-04T13:56:29;13.82;;;8.80;;
82005;SDS011;71529;47.484;19.064;2023-12-04T13:59:09;17.23;;;10.15;;
82005;SDS011;71529;47.484;19.064;2023-12-04T14:01:46;11.40;;;7.78;;
82005;SDS011;71529;47.484;19.064;2023-12-04T14:04:17;10.35;;;7.95;;
82005;SDS011;71529;47.484;19.064;2023-12-04T14:06:46;14.30;;;7.45;;
82005;SDS011;71529;47.484;19.064;2023-12-04T14:09:15;10.18;;;7.70;;
82005;SDS011;71529;47.484;19.064;2023-12-04T14:11:43;12.18;;;7.82;;
82005;SDS011;71529;47.484;19.064;2023-12-04T14:14:12;13.48;;;7.68;;
82005;SDS011;71529;47.484;19.064;2023-12-04T14:16:40;13.80;;;8.15;;
82005;SDS011;71529;47.484;19.064;2023-12-04T14:19:10;12.73;;;8.30;;
82005;SDS011;71529;47.484;19.064;2023-12-04T14:21:39;10.30;;;7.75;;
82005;SDS011;71529;47.484;19.064;2023-12-04T14:24:08;18.75;;;8.20;;
82005;SDS011;71529;47.484;19.064;2023-12-04T14:26:36;9.52;;;7.75;;
82005;SDS011;71529;47.484;19.064;2023-12-04T14:29:04;11.73;;;8.27;;
82005;SDS011;71529;47.484;19.064;2023-12-04T14:31:34;17.25;;;8.82;;
82005;SDS011;71529;47.484;19.064;2023-12-04T14:34:02;14.20;;;7.85;;
82005;SDS011;71529;47.484;19.064;2023-12-04T14:36:32;11.02;;;7.38;;
82005;SDS011;71529;47.484;19.064;2023-12-04T14:39:00;17.17;;;7.80;;
82005;SDS011;71529;47.484;19.064;2023-12-04T14:41:29;12.23;;;7.85;;